Аэропорт: Звартноц. Ереван

ICAO: UDYZ

METAR:
2022-06-26 11:00:00
UDYZ 261100Z 26003KT 9999 -SHRA BKN040CB 20/16 Q1007 R09/290060 NOSIG
METAR:
2022-06-26 05:00:00
TAF UDYZ 260500Z 2606/2706 19006KT 9999 SCT040 TEMPO 2606/2618 VRB20G30KT -TSRA BKN030CB